Time;durP1;ratioP1;P1;durP2;ratioP2;P2;SDS_P1;SDS_P2;PMS_P1;PMS_P2;Temp;Humidity;BMP_temperature;BMP_pressure;BME280_temperature;BME280_humidity;BME280_pressure;Samples;Min_cycle;Max_cycle;Signal;HPM_P1;HPM_P2
2023/07/09 00:02:19;;;;;;;7.03;4.50;;;;;;;25.50;62.53;100534.75;5048222;28;20418;-61
2023/07/09 00:04:45;;;;;;;8.00;4.63;;;;;;;25.49;62.79;100533.09;5051650;28;21005;-60
2023/07/09 00:07:26;;;;;;;6.93;4.23;;;;;;;25.50;62.37;100539.72;5068567;28;20201;-61
2023/07/09 00:09:53;;;;;;;7.00;4.50;;;;;;;25.49;62.70;100538.88;5069039;28;20646;-60
2023/07/09 00:12:19;;;;;;;5.47;3.90;;;;;;;25.48;63.09;100534.34;5053043;28;20438;-60
2023/07/09 00:14:44;;;;;;;9.33;4.90;;;;;;;25.48;62.47;100537.22;5049241;28;20576;-60
2023/07/09 00:17:23;;;;;;;12.70;4.03;;;;;;;25.47;62.63;100535.59;5033506;28;20246;-60
2023/07/09 00:19:49;;;;;;;8.40;4.43;;;;;;;25.48;62.24;100530.66;5034734;28;20179;-60
2023/07/09 00:22:18;;;;;;;7.07;4.40;;;;;;;25.48;62.48;100527.75;5050633;28;20490;-60
2023/07/09 00:24:44;;;;;;;7.67;5.07;;;;;;;25.48;62.47;100531.44;5050878;28;20464;-60
2023/07/09 00:27:11;;;;;;;7.80;4.10;;;;;;;25.48;61.98;100536.44;5038313;28;20503;-60
2023/07/09 00:29:37;;;;;;;8.47;4.53;;;;;;;25.48;61.76;100533.53;5031198;28;20422;-61
2023/07/09 00:32:02;;;;;;;6.63;4.73;;;;;;;25.46;62.47;100528.16;5052705;28;20967;-61
2023/07/09 00:34:28;;;;;;;6.60;4.07;;;;;;;25.47;62.47;100534.75;5068958;28;20923;-60
2023/07/09 00:36:53;;;;;;;6.83;4.20;;;;;;;25.46;62.51;100545.53;5072038;28;20735;-61
2023/07/09 00:39:20;;;;;;;6.83;4.30;;;;;;;25.47;62.33;100540.53;5037833;28;20265;-60
2023/07/09 00:41:46;;;;;;;6.90;4.53;;;;;;;25.47;62.57;100547.16;5067413;28;20183;-60
2023/07/09 00:44:21;;;;;;;8.47;5.00;;;;;;;25.47;62.45;100546.31;5071121;28;20779;-61
2023/07/09 00:46:49;;;;;;;9.53;4.73;;;;;;;25.46;62.08;100542.63;5050921;28;20463;-60
2023/07/09 00:49:29;;;;;;;7.37;4.30;;;;;;;25.45;62.56;100543.88;5069358;28;20429;-61
2023/07/09 00:51:55;;;;;;;8.23;4.90;;;;;;;25.46;62.18;100550.47;5038395;28;20405;-61
2023/07/09 00:54:30;;;;;;;7.47;4.70;;;;;;;25.46;62.31;100545.53;5070955;28;20465;-60
2023/07/09 00:56:57;;;;;;;9.30;4.67;;;;;;;25.45;62.09;100543.88;5042005;28;20284;-61
2023/07/09 00:59:24;;;;;;;5.70;3.90;;;;;;;25.45;62.46;100549.66;5017328;28;20421;-60
2023/07/09 01:01:50;;;;;;;6.50;4.50;;;;;;;25.44;61.60;100550.88;5034109;28;20788;-60
2023/07/09 01:04:17;;;;;;;10.87;4.63;;;;;;;25.44;62.05;100548.00;5034635;28;20434;-60
2023/07/09 01:06:48;;;;;;;7.13;4.27;;;;;;;25.44;62.10;100547.19;5037176;28;20936;-60
2023/07/09 01:09:14;;;;;;;6.40;4.70;;;;;;;25.44;62.24;100555.84;5034886;28;20406;-61
2023/07/09 01:11:39;;;;;;;7.97;4.67;;;;;;;25.43;62.04;100549.25;5034436;28;20397;-60
2023/07/09 01:14:07;;;;;;;9.67;4.77;;;;;;;25.43;62.20;100555.03;5051925;28;20231;-61
2023/07/09 01:16:35;;;;;;;6.90;4.63;;;;;;;25.42;61.98;100553.38;5054991;28;20191;-61
2023/07/09 01:19:00;;;;;;;7.90;4.60;;;;;;;25.42;62.03;100541.81;5064463;28;20421;-61
2023/07/09 01:21:27;;;;;;;10.27;4.63;;;;;;;25.42;62.06;100544.72;5072103;28;20420;-61
2023/07/09 01:23:52;;;;;;;7.30;4.20;;;;;;;25.42;62.32;100547.59;5034104;28;20247;-60
2023/07/09 01:26:20;;;;;;;6.93;4.20;;;;;;;25.43;61.87;100552.13;5054074;28;20421;-60
2023/07/09 01:28:45;;;;;;;5.57;3.80;;;;;;;25.42;62.14;100547.59;5070874;28;20167;-60
2023/07/09 01:31:12;;;;;;;6.23;4.20;;;;;;;25.42;61.77;100546.75;5056703;28;20834;-60
2023/07/09 01:33:41;;;;;;;6.70;4.63;;;;;;;25.41;61.86;100540.19;5016600;28;20208;-61
2023/07/09 01:36:08;;;;;;;7.57;4.57;;;;;;;25.42;62.23;100535.19;5052212;28;20437;-60
2023/07/09 01:38:33;;;;;;;6.30;4.73;;;;;;;25.42;61.96;100538.94;5052982;28;20414;-61
2023/07/09 01:40:59;;;;;;;8.40;4.47;;;;;;;25.41;61.75;100545.97;5070242;28;20484;-60
2023/07/09 01:43:25;;;;;;;8.10;4.57;;;;;;;25.41;61.91;100543.06;5053368;28;21033;-60
2023/07/09 01:45:51;;;;;;;8.53;4.53;;;;;;;25.41;61.73;100543.06;5065220;28;20476;-61
2023/07/09 01:48:17;;;;;;;6.70;3.83;;;;;;;25.41;61.57;100548.03;5052601;28;20167;-61
2023/07/09 01:50:43;;;;;;;6.67;3.90;;;;;;;25.40;61.90;100555.88;5067286;28;20187;-60
2023/07/09 01:53:15;;;;;;;7.60;4.67;;;;;;;25.40;61.82;100550.09;5070238;28;20452;-60
2023/07/09 01:55:41;;;;;;;7.90;4.63;;;;;;;25.39;61.58;100544.75;5067180;28;20187;-61
2023/07/09 01:58:08;;;;;;;8.00;3.90;;;;;;;25.38;61.90;100546.78;5049484;28;20418;-61
2023/07/09 02:00:36;;;;;;;6.83;4.33;;;;;;;25.39;62.08;100545.53;5050759;28;20541;-61
2023/07/09 02:03:02;;;;;;;7.20;4.60;;;;;;;25.38;62.04;100555.47;5053076;28;20466;-61
2023/07/09 02:05:29;;;;;;;6.43;4.00;;;;;;;25.38;61.84;100561.25;5050753;28;20476;-60
2023/07/09 02:07:55;;;;;;;13.10;4.80;;;;;;;25.39;61.99;100562.88;5050676;28;20194;-61
2023/07/09 02:10:20;;;;;;;8.70;4.80;;;;;;;25.38;62.18;100558.34;5050464;28;20410;-60
2023/07/09 02:12:46;;;;;;;6.70;4.50;;;;;;;25.38;61.92;100557.56;5052805;28;20568;-61
2023/07/09 02:15:11;;;;;;;6.57;3.87;;;;;;;25.38;61.85;100561.25;5058355;28;20252;-60
2023/07/09 02:17:37;;;;;;;6.33;3.87;;;;;;;25.39;61.91;100567.88;5042574;28;20207;-61
2023/07/09 02:20:04;;;;;;;10.30;4.60;;;;;;;25.38;61.91;100567.03;5051292;28;20253;-61
2023/07/09 02:22:30;;;;;;;6.43;4.30;;;;;;;25.38;62.12;100560.44;5052252;28;20287;-60
2023/07/09 02:24:55;;;;;;;7.70;4.70;;;;;;;25.37;61.79;100558.78;5059843;28;21089;-61
2023/07/09 02:27:21;;;;;;;6.97;4.37;;;;;;;25.38;61.74;100563.34;5070358;28;20760;-60
2023/07/09 02:29:47;;;;;;;7.47;4.33;;;;;;;25.37;61.96;100556.72;5069893;28;20274;-60
2023/07/09 02:32:17;;;;;;;7.73;4.60;;;;;;;25.37;61.69;100556.72;5065086;28;20965;-61
2023/07/09 02:34:42;;;;;;;7.83;4.90;;;;;;;25.36;62.01;100548.47;5032215;28;20554;-61
2023/07/09 02:37:08;;;;;;;7.50;4.13;;;;;;;25.35;61.98;100553.44;5055295;28;20432;-61
2023/07/09 02:39:33;;;;;;;9.20;4.70;;;;;;;25.36;61.62;100557.13;5047500;28;20638;-61
2023/07/09 02:41:59;;;;;;;5.43;3.87;;;;;;;25.36;61.56;100562.91;5068291;28;20783;-61
2023/07/09 02:44:24;;;;;;;7.23;4.40;;;;;;;25.36;61.59;100568.69;5060775;28;20508;-60
2023/07/09 02:46:49;;;;;;;7.40;4.60;;;;;;;25.35;61.69;100578.63;5066084;28;20171;-60
2023/07/09 02:49:15;;;;;;;7.63;4.53;;;;;;;25.35;61.89;100578.63;5067651;28;20670;-61
2023/07/09 02:51:41;;;;;;;8.33;4.13;;;;;;;25.36;61.94;100577.38;5051595;28;20800;-60
2023/07/09 02:54:06;;;;;;;5.87;4.07;;;;;;;25.35;61.53;100579.44;5051622;28;20659;-62
2023/07/09 02:56:32;;;;;;;7.50;4.40;;;;;;;25.35;61.91;100578.63;5066940;28;20233;-61
2023/07/09 02:58:57;;;;;;;5.80;3.83;;;;;;;25.35;61.50;100578.63;5065340;28;20187;-61
2023/07/09 03:01:24;;;;;;;5.90;4.33;;;;;;;25.35;61.63;100572.84;5069296;28;20232;-61
2023/07/09 03:03:56;;;;;;;9.23;4.70;;;;;;;25.34;61.66;100577.78;5069003;28;20199;-60
2023/07/09 03:06:22;;;;;;;6.83;4.60;;;;;;;25.34;61.34;100576.97;5069132;28;20436;-61
2023/07/09 03:08:48;;;;;;;6.50;4.10;;;;;;;25.32;61.38;100580.28;5052176;28;20768;-61
2023/07/09 03:11:14;;;;;;;6.37;4.30;;;;;;;25.33;61.97;100587.72;5049322;28;20468;-60
2023/07/09 03:13:39;;;;;;;6.90;4.50;;;;;;;25.32;61.89;100580.28;5048590;28;20215;-60
2023/07/09 03:16:05;;;;;;;7.00;4.40;;;;;;;25.33;61.35;100584.81;5032643;28;20803;-60
2023/07/09 03:18:30;;;;;;;8.77;5.27;;;;;;;25.33;61.65;100586.91;5065009;28;20549;-60
2023/07/09 03:20:56;;;;;;;6.93;4.13;;;;;;;25.33;61.62;100578.22;5034302;28;20187;-59
2023/07/09 03:23:22;;;;;;;7.50;5.00;;;;;;;25.33;61.87;100579.03;5068860;28;20175;-60
2023/07/09 03:25:47;;;;;;;5.73;3.83;;;;;;;25.33;61.41;100579.03;5063777;28;20213;-60
2023/07/09 03:28:13;;;;;;;7.43;4.57;;;;;;;25.32;61.72;100571.63;5049164;28;20512;-61
2023/07/09 03:30:42;;;;;;;6.87;4.30;;;;;;;25.32;61.77;100580.28;5066506;28;20194;-61
2023/07/09 03:33:09;;;;;;;7.63;4.50;;;;;;;25.32;61.55;100580.28;5048392;28;20211;-61
2023/07/09 03:35:36;;;;;;;6.80;4.20;;;;;;;25.32;61.82;100588.13;5061683;28;20434;-61
2023/07/09 03:38:01;;;;;;;8.17;4.57;;;;;;;25.32;60.74;100588.97;5063238;28;21322;-61
2023/07/09 03:40:27;;;;;;;7.63;5.00;;;;;;;25.31;61.89;100586.47;5065623;28;20425;-60
2023/07/09 03:42:52;;;;;;;9.50;4.43;;;;;;;25.31;61.83;100595.16;5066512;28;20695;-61
2023/07/09 03:45:18;;;;;;;6.80;4.30;;;;;;;25.30;61.36;100600.13;5064015;28;20678;-62
2023/07/09 03:47:43;;;;;;;5.83;4.00;;;;;;;25.31;61.59;100606.72;5064492;28;20190;-61
2023/07/09 03:50:09;;;;;;;7.17;4.17;;;;;;;25.30;61.68;100599.28;5066884;28;20183;-62
2023/07/09 03:52:35;;;;;;;6.77;3.57;;;;;;;25.30;61.24;100605.91;5033614;28;20693;-60
2023/07/09 03:55:03;;;;;;;8.90;4.87;;;;;;;25.29;61.56;100598.44;5056899;28;20686;-61
2023/07/09 03:57:28;;;;;;;7.37;4.80;;;;;;;25.29;61.66;100610.00;5068161;28;20179;-60
2023/07/09 03:59:54;;;;;;;7.63;5.10;;;;;;;25.30;61.62;100610.84;5066154;28;20449;-60
2023/07/09 04:02:19;;;;;;;8.83;5.30;;;;;;;25.28;61.68;100614.16;5048855;28;20198;-60
2023/07/09 04:04:45;;;;;;;7.73;4.73;;;;;;;25.28;61.69;100614.16;5048799;28;20199;-61
2023/07/09 04:07:10;;;;;;;7.10;4.00;;;;;;;25.29;61.12;100626.56;5051476;28;20184;-60
2023/07/09 04:09:36;;;;;;;8.37;4.17;;;;;;;25.29;61.20;100624.47;5030879;28;20180;-60
2023/07/09 04:12:02;;;;;;;5.30;4.20;;;;;;;25.28;61.23;100619.13;5054699;28;20186;-61
2023/07/09 04:14:28;;;;;;;8.40;4.40;;;;;;;25.28;61.78;100628.59;5068208;28;20239;-61
2023/07/09 04:16:53;;;;;;;7.83;4.63;;;;;;;25.27;61.54;100626.13;5068688;28;20541;-61
2023/07/09 04:19:19;;;;;;;7.00;4.67;;;;;;;25.27;61.65;100635.63;5052579;28;20229;-60
2023/07/09 04:21:44;;;;;;;9.27;4.93;;;;;;;25.27;61.59;100635.63;5057171;28;20205;-60
2023/07/09 04:24:10;;;;;;;12.93;4.80;;;;;;;25.26;61.17;100631.09;5067730;28;20160;-60
2023/07/09 04:26:35;;;;;;;8.80;5.10;;;;;;;25.26;61.07;100636.88;5065431;28;20205;-61
2023/07/09 04:29:01;;;;;;;8.10;4.20;;;;;;;25.26;61.09;100636.88;5065378;28;20614;-62
2023/07/09 04:31:26;;;;;;;6.30;4.27;;;;;;;25.26;61.27;100633.16;5066587;28;20529;-61
2023/07/09 04:33:52;;;;;;;6.97;4.10;;;;;;;25.25;61.21;100632.34;5054328;28;20960;-61
2023/07/09 04:36:18;;;;;;;6.70;4.87;;;;;;;25.26;61.55;100639.78;5058895;28;20167;-60
2023/07/09 04:38:43;;;;;;;7.57;4.43;;;;;;;25.27;61.44;100638.53;5063597;28;20464;-61
2023/07/09 04:41:09;;;;;;;8.10;4.47;;;;;;;25.26;61.04;100631.09;5066232;28;20167;-61
2023/07/09 04:43:34;;;;;;;8.10;4.00;;;;;;;25.28;61.02;100634.38;5066545;28;20175;-60
2023/07/09 04:45:59;;;;;;;6.80;4.40;;;;;;;25.30;61.29;100631.09;5064936;28;20520;-60
2023/07/09 04:48:25;;;;;;;5.80;4.27;;;;;;;25.30;61.32;100637.69;5048695;28;20206;-60
2023/07/09 04:50:51;;;;;;;6.77;4.37;;;;;;;25.31;61.01;100636.47;5067078;28;20684;-61
2023/07/09 04:53:17;;;;;;;5.47;3.63;;;;;;;25.32;60.88;100638.09;5052627;28;20233;-59
2023/07/09 04:55:42;;;;;;;7.23;4.90;;;;;;;25.32;60.79;100641.00;5063456;28;20610;-60
2023/07/09 04:58:07;;;;;;;5.67;4.30;;;;;;;25.32;61.22;100640.16;5068637;28;20518;-61
2023/07/09 05:00:33;;;;;;;7.80;4.43;;;;;;;25.32;61.04;100643.88;5066252;28;20876;-60
2023/07/09 05:02:58;;;;;;;7.20;4.40;;;;;;;25.32;61.07;100637.25;5029704;28;20781;-61
2023/07/09 05:05:24;;;;;;;6.50;4.33;;;;;;;25.32;61.12;100637.25;5046969;28;20228;-61
2023/07/09 05:07:50;;;;;;;6.10;3.80;;;;;;;25.30;61.27;100634.81;5049905;28;20195;-59
2023/07/09 05:10:16;;;;;;;6.53;4.63;;;;;;;25.31;61.30;100642.25;5047259;28;20168;-60
2023/07/09 05:12:52;;;;;;;6.67;4.50;;;;;;;25.32;60.75;100638.09;5025242;28;20513;-61
2023/07/09 05:15:18;;;;;;;7.60;4.67;;;;;;;25.33;61.03;100639.75;5026459;28;20250;-60
2023/07/09 05:17:44;;;;;;;6.83;4.63;;;;;;;25.34;61.44;100646.34;5012569;28;20854;-61
2023/07/09 05:20:13;;;;;;;7.40;4.40;;;;;;;25.35;61.29;100637.28;5027262;28;20422;-60
2023/07/09 05:22:38;;;;;;;6.23;4.37;;;;;;;25.36;61.22;100635.19;5040175;28;20325;-61
2023/07/09 05:25:04;;;;;;;7.50;4.90;;;;;;;25.36;60.72;100629.41;5048993;28;21583;-60
2023/07/09 05:27:29;;;;;;;6.07;4.07;;;;;;;25.38;60.94;100633.53;5049520;28;20651;-60
2023/07/09 05:29:55;;;;;;;8.00;3.80;;;;;;;25.38;61.09;100633.53;5031460;28;20184;-61
2023/07/09 05:32:21;;;;;;;6.67;4.67;;;;;;;25.38;61.46;100636.41;5034049;28;20184;-60
2023/07/09 05:34:46;;;;;;;8.30;5.00;;;;;;;25.39;61.23;100637.25;5023149;28;20248;-60
2023/07/09 05:37:11;;;;;;;6.47;4.23;;;;;;;25.37;61.38;100631.88;5030604;28;20172;-60
2023/07/09 05:39:37;;;;;;;8.60;4.30;;;;;;;25.37;61.29;100636.81;5037788;28;20206;-61
2023/07/09 05:42:02;;;;;;;7.50;5.30;;;;;;;25.35;61.06;100636.44;5050983;28;20179;-59
2023/07/09 05:44:28;;;;;;;7.70;4.50;;;;;;;25.32;61.52;100635.22;5030322;28;20192;-60
2023/07/09 05:46:53;;;;;;;7.17;4.33;;;;;;;25.32;62.04;100638.09;5031350;28;20180;-61
2023/07/09 05:49:19;;;;;;;7.73;4.40;;;;;;;25.33;61.22;100638.94;5033966;28;20180;-59
2023/07/09 05:51:44;;;;;;;7.00;4.70;;;;;;;25.35;61.43;100643.06;5031497;28;20157;-61
2023/07/09 05:54:11;;;;;;;7.10;3.97;;;;;;;25.36;61.41;100644.69;5033874;28;20261;-61
2023/07/09 05:56:36;;;;;;;11.00;4.17;;;;;;;25.35;61.34;100643.06;5033173;28;20194;-60
2023/07/09 05:59:02;;;;;;;7.20;4.50;;;;;;;25.36;61.36;100643.84;5016762;28;20439;-60
2023/07/09 06:01:27;;;;;;;6.30;4.40;;;;;;;25.35;61.43;100645.09;5031549;28;20169;-61
2023/07/09 06:03:54;;;;;;;6.70;4.40;;;;;;;25.35;61.28;100645.94;5032762;28;20634;-60
2023/07/09 06:06:19;;;;;;;6.40;4.80;;;;;;;25.35;61.69;100643.06;5032662;28;20222;-60
2023/07/09 06:08:46;;;;;;;6.63;4.70;;;;;;;25.38;61.54;100647.16;5013482;28;20424;-61
2023/07/09 06:11:12;;;;;;;7.03;4.83;;;;;;;25.39;61.76;100648.81;5012800;28;20508;-59
2023/07/09 06:13:37;;;;;;;7.17;4.17;;;;;;;25.40;61.63;100645.50;5035342;28;20526;-59
2023/07/09 06:16:03;;;;;;;8.10;4.60;;;;;;;25.42;61.49;100639.28;5041241;28;20196;-60
2023/07/09 06:18:29;;;;;;;6.03;4.30;;;;;;;25.43;61.57;100649.63;5029392;28;20202;-61
2023/07/09 06:21:00;;;;;;;6.20;4.47;;;;;;;25.42;61.27;100647.94;5030015;28;20180;-61
2023/07/09 06:23:25;;;;;;;6.47;4.87;;;;;;;25.41;61.41;100640.53;5038740;28;20443;-60
2023/07/09 06:25:52;;;;;;;7.63;4.87;;;;;;;25.39;61.39;100640.94;5046061;28;21060;-60
2023/07/09 06:28:20;;;;;;;6.37;4.47;;;;;;;25.37;61.79;100640.56;5048519;28;20176;-60
2023/07/09 06:30:45;;;;;;;8.00;5.30;;;;;;;25.36;61.65;100638.91;5049928;28;20445;-61
2023/07/09 06:33:11;;;;;;;9.20;4.73;;;;;;;25.37;61.39;100639.72;5046343;28;20434;-61
2023/07/09 06:35:37;;;;;;;5.80;4.20;;;;;;;25.35;61.85;100640.16;5029810;28;20240;-59
2023/07/09 06:38:02;;;;;;;6.20;4.27;;;;;;;25.35;61.35;100631.50;5023442;28;20866;-60
2023/07/09 06:40:28;;;;;;;6.40;4.87;;;;;;;25.35;61.37;100643.06;5035400;28;20181;-59
2023/07/09 06:42:54;;;;;;;6.90;4.33;;;;;;;25.35;61.51;100640.16;5030641;28;20632;-60
2023/07/09 06:45:19;;;;;;;7.27;5.03;;;;;;;25.35;61.72;100637.28;5035635;28;20419;-59
2023/07/09 06:47:45;;;;;;;5.43;3.50;;;;;;;25.34;61.50;100638.50;5047830;28;20176;-60
2023/07/09 06:50:11;;;;;;;9.63;4.70;;;;;;;25.36;61.16;100643.84;5049700;28;20175;-60
2023/07/09 06:52:37;;;;;;;6.23;4.47;;;;;;;25.37;61.13;100645.50;5040203;28;20184;-60
2023/07/09 06:55:02;;;;;;;8.70;4.77;;;;;;;25.36;61.46;100638.91;5036248;28;20469;-60
2023/07/09 06:57:28;;;;;;;6.80;4.70;;;;;;;25.38;61.23;100639.31;5050187;28;20175;-59
2023/07/09 06:59:54;;;;;;;5.53;3.73;;;;;;;25.38;61.31;100639.31;5050214;28;20619;-60
2023/07/09 07:02:20;;;;;;;6.00;4.30;;;;;;;25.38;61.38;100639.31;5046537;28;20669;-59
2023/07/09 07:04:45;;;;;;;8.10;5.03;;;;;;;25.39;61.19;100640.94;5049983;28;20521;-59
2023/07/09 07:07:11;;;;;;;6.70;4.50;;;;;;;25.40;61.71;100642.63;5042803;28;20211;-60
2023/07/09 07:09:36;;;;;;;6.47;4.77;;;;;;;25.39;61.79;100638.06;5029536;28;20165;-60
2023/07/09 07:12:02;;;;;;;7.33;4.70;;;;;;;25.40;61.76;100644.66;5028875;28;20743;-60
2023/07/09 07:14:27;;;;;;;6.00;4.17;;;;;;;25.39;61.70;100637.25;5046003;28;20318;-60
2023/07/09 07:16:52;;;;;;;9.10;4.43;;;;;;;25.37;62.11;100631.88;5050835;28;20187;-59
2023/07/09 07:19:18;;;;;;;9.07;4.30;;;;;;;25.38;62.02;100633.53;5047492;28;20835;-59
2023/07/09 07:21:43;;;;;;;6.37;4.30;;;;;;;25.38;61.79;100624.03;5059895;28;20503;-61
2023/07/09 07:24:09;;;;;;;6.67;4.60;;;;;;;25.38;61.85;100636.41;5067019;28;20221;-61
2023/07/09 07:26:34;;;;;;;7.10;4.83;;;;;;;25.38;61.99;100630.63;5066576;28;20202;-60
2023/07/09 07:29:00;;;;;;;9.03;5.03;;;;;;;25.38;61.65;100624.84;5049643;28;20172;-61
2023/07/09 07:31:25;;;;;;;7.60;4.97;;;;;;;25.39;61.92;100626.50;5031578;28;20258;-60
2023/07/09 07:33:51;;;;;;;7.40;4.53;;;;;;;25.38;61.68;100633.53;5051344;28;20242;-61
2023/07/09 07:36:16;;;;;;;6.53;4.10;;;;;;;25.38;61.40;100621.16;5066395;28;20297;-60
2023/07/09 07:38:42;;;;;;;7.70;4.67;;;;;;;25.38;61.83;100624.84;5066357;28;21008;-59
2023/07/09 07:41:07;;;;;;;7.50;4.73;;;;;;;25.39;62.37;100617.81;5050038;28;20183;-60
2023/07/09 07:43:33;;;;;;;8.20;5.10;;;;;;;25.37;61.70;100617.44;5059363;28;20179;-60
2023/07/09 07:45:58;;;;;;;8.50;4.93;;;;;;;25.39;62.02;100619.91;5056619;28;20190;-60
2023/07/09 07:48:23;;;;;;;7.37;4.47;;;;;;;25.37;62.25;100620.31;5055135;28;20191;-60
2023/07/09 07:50:49;;;;;;;7.40;4.60;;;;;;;25.37;62.09;100620.31;5064966;28;20188;-61
2023/07/09 07:53:15;;;;;;;5.70;4.10;;;;;;;25.37;61.78;100616.59;5069038;28;20186;-59
2023/07/09 07:55:41;;;;;;;7.53;5.13;;;;;;;25.37;62.44;100614.53;5070242;28;20585;-60
2023/07/09 07:58:09;;;;;;;7.37;5.03;;;;;;;25.38;62.30;100619.06;5054119;28;20195;-59
2023/07/09 08:00:34;;;;;;;6.10;4.20;;;;;;;25.37;62.23;100617.44;5050639;28;20243;-61
2023/07/09 08:03:00;;;;;;;7.27;4.67;;;;;;;25.38;62.01;100615.38;5048941;28;20434;-60
2023/07/09 08:05:25;;;;;;;6.80;5.10;;;;;;;25.37;62.50;100614.53;5048615;28;20195;-61
2023/07/09 08:07:51;;;;;;;7.27;5.10;;;;;;;25.38;62.67;100621.16;5058703;28;20186;-61
2023/07/09 08:10:16;;;;;;;7.87;4.70;;;;;;;25.38;62.45;100624.84;5066994;28;20183;-61
2023/07/09 08:12:42;;;;;;;6.77;4.73;;;;;;;25.38;62.12;100621.97;5064655;28;20246;-60
2023/07/09 08:15:08;;;;;;;6.67;4.90;;;;;;;25.38;62.67;100621.97;5057283;28;20210;-61
2023/07/09 08:17:33;;;;;;;6.73;4.53;;;;;;;25.38;61.73;100619.06;5047980;28;20261;-61
2023/07/09 08:19:59;;;;;;;6.53;4.83;;;;;;;25.38;62.45;100624.84;5061812;28;20908;-61
2023/07/09 08:22:24;;;;;;;7.40;4.73;;;;;;;25.38;62.46;100613.28;5063947;28;20662;-62
2023/07/09 08:24:49;;;;;;;8.90;4.83;;;;;;;25.39;62.90;100617.00;5057107;28;20696;-61
2023/07/09 08:27:15;;;;;;;7.73;4.80;;;;;;;25.39;62.58;100608.34;5045247;28;20515;-61
2023/07/09 08:29:42;;;;;;;6.73;4.53;;;;;;;25.39;62.30;100608.34;5050489;28;20334;-60
2023/07/09 08:32:08;;;;;;;8.40;4.83;;;;;;;25.39;62.47;100612.03;5047825;28;20180;-60
2023/07/09 08:34:33;;;;;;;7.17;4.80;;;;;;;25.39;62.19;100609.13;5049687;28;20470;-60
2023/07/09 08:36:59;;;;;;;8.40;5.03;;;;;;;25.41;62.10;100603.78;5047933;28;20433;-60
2023/07/09 08:39:24;;;;;;;7.20;4.53;;;;;;;25.40;62.06;100593.47;5056564;28;20183;-61
2023/07/09 08:41:57;;;;;;;7.83;5.43;;;;;;;25.41;62.77;100605.84;5030863;28;20848;-61
2023/07/09 08:44:34;;;;;;;11.30;5.63;;;;;;;25.41;62.53;100606.69;5045254;28;20183;-60
2023/07/09 08:47:11;;;;;;;7.33;5.13;;;;;;;25.40;62.45;100607.94;5045836;28;20815;-60
2023/07/09 08:49:49;;;;;;;12.10;5.77;;;;;;;25.40;62.26;100604.19;5047511;28;20416;-60
2023/07/09 08:52:21;;;;;;;7.50;4.73;;;;;;;25.41;62.22;100606.69;5050230;28;20495;-61
2023/07/09 08:54:47;;;;;;;8.03;4.70;;;;;;;25.41;62.17;100615.34;5061615;28;20502;-60
2023/07/09 08:57:27;;;;;;;8.40;5.50;;;;;;;25.40;62.64;100610.81;5068888;28;20442;-60
2023/07/09 09:00:02;;;;;;;9.93;4.63;;;;;;;25.41;62.16;100606.69;5050836;28;20206;-61
2023/07/09 09:03:22;;;;;;;7.30;5.00;;;;;;;25.43;62.46;100609.16;5035889;28;20568;-60
2023/07/09 09:05:48;;;;;;;11.13;5.40;;;;;;;25.43;62.25;100609.97;4987659;28;20439;-60
2023/07/09 09:08:52;;;;;;;7.77;4.90;;;;;;;25.43;62.00;100612.84;5058067;28;20451;-61
2023/07/09 09:11:43;;;;;;;8.00;5.00;;;;;;;25.44;62.29;100611.59;5036830;28;20814;-61
2023/07/09 09:14:18;;;;;;;7.10;4.33;;;;;;;25.44;61.86;100611.59;5068763;28;20563;-61
2023/07/09 09:16:43;;;;;;;10.80;5.60;;;;;;;25.44;62.67;100605.00;5069378;28;20529;-61
2023/07/09 09:19:18;;;;;;;7.33;5.40;;;;;;;25.44;62.30;100602.91;5066226;28;21053;-60
2023/07/09 09:21:44;;;;;;;7.67;5.17;;;;;;;25.44;62.17;100597.13;5048505;28;20194;-61
2023/07/09 09:24:29;;;;;;;7.57;5.43;;;;;;;25.45;62.30;100595.91;5062083;28;20428;-61
2023/07/09 09:26:56;;;;;;;7.67;5.07;;;;;;;25.45;62.02;100584.34;5067935;28;21186;-60
2023/07/09 09:29:23;;;;;;;6.10;4.20;;;;;;;25.46;62.20;100582.28;5052499;28;20441;-60
2023/07/09 09:31:51;;;;;;;5.90;4.50;;;;;;;25.46;62.27;100576.47;5018752;28;20418;-61
2023/07/09 09:34:21;;;;;;;6.20;4.40;;;;;;;25.46;62.09;100568.66;5049817;28;20484;-60
2023/07/09 09:36:46;;;;;;;8.93;5.27;;;;;;;25.47;62.19;100569.44;5033612;28;20467;-60
2023/07/09 09:39:11;;;;;;;6.83;4.87;;;;;;;25.47;62.04;100573.19;5035776;28;20434;-61
2023/07/09 09:41:37;;;;;;;10.57;5.50;;;;;;;25.47;61.80;100558.72;5059973;28;20564;-60
2023/07/09 09:44:04;;;;;;;8.80;5.30;;;;;;;25.48;62.50;100560.38;5051940;28;20568;-60
2023/07/09 09:46:31;;;;;;;6.53;4.83;;;;;;;25.48;62.55;100554.59;5068246;28;20252;-60
2023/07/09 09:49:00;;;;;;;7.23;5.40;;;;;;;25.48;62.11;100548.78;5061487;28;20515;-59
2023/07/09 09:51:26;;;;;;;6.97;4.50;;;;;;;25.48;61.97;100548.00;5050943;28;20460;-60
2023/07/09 09:53:58;;;;;;;6.83;4.90;;;;;;;25.48;62.27;100545.09;5017699;28;20457;-60
2023/07/09 09:56:34;;;;;;;9.63;5.10;;;;;;;25.48;61.92;100548.78;5053398;28;20191;-59
2023/07/09 09:59:00;;;;;;;11.00;5.53;;;;;;;25.48;61.96;100560.38;5054185;28;20437;-60
2023/07/09 10:01:29;;;;;;;7.33;4.97;;;;;;;25.50;62.24;100551.28;5051694;28;20446;-60
2023/07/09 10:03:56;;;;;;;9.97;5.30;;;;;;;25.50;61.57;100548.38;5049187;28;20368;-61
2023/07/09 10:06:49;;;;;;;7.23;4.80;;;;;;;25.49;61.52;100544.66;5047925;28;20414;-60
2023/07/09 10:09:24;;;;;;;8.30;5.20;;;;;;;25.50;61.51;100552.09;5027791;28;20441;-62
2023/07/09 10:12:08;;;;;;;8.00;6.00;;;;;;;25.51;62.07;100562.44;5050155;28;20428;-60
2023/07/09 10:14:38;;;;;;;8.87;5.40;;;;;;;25.51;61.81;100550.84;5049651;28;20512;-60
2023/07/09 10:17:30;;;;;;;6.17;4.50;;;;;;;25.52;61.86;100543.81;5031505;28;20422;-60
2023/07/09 10:20:17;;;;;;;6.60;4.83;;;;;;;25.51;61.93;100545.06;5063376;28;20434;-60
2023/07/09 10:23:02;;;;;;;7.80;5.30;;;;;;;25.52;61.63;100540.94;5052252;28;20406;-60
2023/07/09 10:26:00;;;;;;;8.10;5.17;;;;;;;25.52;61.51;100546.72;5047084;28;20483;-60
2023/07/09 10:28:38;;;;;;;8.47;5.20;;;;;;;25.54;61.46;100543.41;5038181;28;20440;-60
2023/07/09 10:31:35;;;;;;;8.43;5.50;;;;;;;25.55;62.12;100542.16;5056991;28;20791;-60
2023/07/09 10:34:04;;;;;;;9.67;5.10;;;;;;;25.54;62.21;100535.53;5049775;28;20969;-60
2023/07/09 10:36:56;;;;;;;8.43;5.30;;;;;;;25.54;62.10;100531.84;5052552;28;20442;-61
2023/07/09 10:39:24;;;;;;;6.90;4.60;;;;;;;25.54;61.51;100535.53;5017567;28;20977;-60
2023/07/09 10:41:49;;;;;;;7.37;4.97;;;;;;;25.54;61.63;100526.06;5030902;28;20490;-60
2023/07/09 10:44:25;;;;;;;10.50;5.10;;;;;;;25.56;61.72;100530.16;5031502;28;20418;-60
2023/07/09 10:46:55;;;;;;;7.07;4.70;;;;;;;25.55;61.65;100528.53;5050104;28;20324;-60
2023/07/09 10:49:20;;;;;;;9.30;5.60;;;;;;;25.55;61.14;100525.63;5048031;28;20520;-60
2023/07/09 10:51:51;;;;;;;7.73;4.80;;;;;;;25.57;60.74;100525.19;5021495;28;20444;-59
2023/07/09 10:54:30;;;;;;;7.93;4.40;;;;;;;25.59;61.36;100531.41;5034325;28;20210;-61
2023/07/09 10:57:14;;;;;;;8.17;5.23;;;;;;;25.60;61.08;100527.25;5030027;28;20525;-61
2023/07/09 10:59:40;;;;;;;7.13;5.27;;;;;;;25.60;60.58;100522.28;5015782;28;20464;-61
2023/07/09 11:02:26;;;;;;;8.03;5.27;;;;;;;25.63;60.41;100515.66;5028273;28;20428;-62
2023/07/09 11:05:00;;;;;;;10.60;5.07;;;;;;;25.64;60.27;100519.38;5048729;28;20204;-61
2023/07/09 11:07:54;;;;;;;7.57;5.30;;;;;;;25.65;60.05;100512.34;5028488;28;20421;-62
2023/07/09 11:10:22;;;;;;;7.30;4.63;;;;;;;25.64;60.20;100517.28;5047602;28;20441;-60
2023/07/09 11:12:58;;;;;;;6.93;4.97;;;;;;;25.66;60.32;100514.81;5051905;28;20565;-60
2023/07/09 11:15:28;;;;;;;7.67;5.10;;;;;;;25.66;60.12;100500.34;5062665;28;20462;-59
2023/07/09 11:17:53;;;;;;;9.00;5.20;;;;;;;25.67;60.08;100504.88;5024247;28;20454;-62
2023/07/09 11:20:32;;;;;;;6.63;4.60;;;;;;;25.65;59.97;100501.56;5051500;28;20425;-60
2023/07/09 11:23:06;;;;;;;6.97;5.00;;;;;;;25.64;60.22;100505.72;5045792;28;20488;-60
2023/07/09 11:25:48;;;;;;;7.53;4.77;;;;;;;25.63;60.30;100506.97;5056555;28;20804;-60
2023/07/09 11:28:13;;;;;;;7.33;4.70;;;;;;;25.65;59.94;100501.56;5069727;28;20455;-60
2023/07/09 11:30:52;;;;;;;8.30;4.70;;;;;;;25.65;59.95;100495.78;5061298;28;20465;-60